Portada
METAR-TAF:

METAR-TAF

Aeroports :

Aneityum, Vanuatu

latitud: 20-14-57S, longitud: 169-46-17E, altitud: 2 m

Observació

L'informe es va fer fa 9 hores i 22 minuts, a les 09:00 UTC
Vent 4 kt del Est
Temperatura 22°C
Humitat 94%
Pressió 1016 hPa
Visibilitat 10 km o més
Núvols disperses a una alçada de 2500 ft

METAR: NVVA 170900Z 09004KT 9999 SCT025 22/21 Q1016

Hora: 05:22 (18:22 UTC)

Pronòstic

L'informe es va fer fa 1 hora i 22 minuts, a les 17:00 UTC
Pronòstic vàlid del 17 a les 18 UTC al 18 a les 18 UTC
Vent 8 kt del Sud-Est
Visibilitat: 9000 m
Núvols disperses a una alçada de 2000 ft
Cel ennuvolat a una alçada de 1800 ft
xàfecs de pluja

TAF: NVVA 171700Z 1718/1818 14008KT 9999 SCT020 INTER 1718/1724 9000 -SHRA BKN018

Observacions i pronòstics meteorològics de més de 4000 aeroports (METAR i TAF).

Les estacions disponibles són els punts grocs i vermells al mapa.

Posi el ratolí al punt desitjat per veure el nom de l'estació.

Feu clic per veure les observacions i els pronòstics meteorològics.

Per canviar el mapa: feu clic els botons verds amb una creu de color negre per apropar; al botó verd amb un guió per allunyar la imatge; o en les fletxes verdes per a mapes adjacents.


METAR-TAF: